sensor_id;sensor_type;location;lat;lon;timestamp;P1;durP1;ratioP1;P2;durP2;ratioP2
4692;SDS011;11710;48.024;16.296;2023-03-23T06:47:25;15.87;;;13.70;;
4692;SDS011;11710;48.024;16.296;2023-03-23T06:49:53;17.63;;;13.47;;
4692;SDS011;11710;48.024;16.296;2023-03-23T06:52:20;15.00;;;13.27;;
4692;SDS011;11710;48.024;16.296;2023-03-23T06:54:48;17.83;;;12.93;;
4692;SDS011;11710;48.024;16.296;2023-03-23T06:57:15;14.43;;;12.83;;
4692;SDS011;11710;48.024;16.296;2023-03-23T06:59:43;15.80;;;13.47;;
4692;SDS011;11710;48.024;16.296;2023-03-23T07:02:12;13.57;;;12.10;;
4692;SDS011;11710;48.024;16.296;2023-03-23T07:04:40;15.30;;;13.23;;
4692;SDS011;11710;48.024;16.296;2023-03-23T07:07:08;16.43;;;12.50;;
4692;SDS011;11710;48.024;16.296;2023-03-23T07:09:39;18.13;;;13.53;;
4692;SDS011;11710;48.024;16.296;2023-03-23T07:12:07;15.77;;;13.20;;
4692;SDS011;11710;48.024;16.296;2023-03-23T07:14:35;16.90;;;12.60;;
4692;SDS011;11710;48.024;16.296;2023-03-23T07:17:02;22.13;;;14.87;;
4692;SDS011;11710;48.024;16.296;2023-03-23T07:19:32;17.50;;;14.00;;
4692;SDS011;11710;48.024;16.296;2023-03-23T07:22:01;20.47;;;14.63;;
4692;SDS011;11710;48.024;16.296;2023-03-23T07:24:30;21.93;;;16.27;;
4692;SDS011;11710;48.024;16.296;2023-03-23T07:26:57;19.63;;;15.40;;
4692;SDS011;11710;48.024;16.296;2023-03-23T07:29:25;22.23;;;15.93;;
4692;SDS011;11710;48.024;16.296;2023-03-23T07:31:53;21.80;;;15.33;;
4692;SDS011;11710;48.024;16.296;2023-03-23T07:34:20;25.70;;;17.27;;
4692;SDS011;11710;48.024;16.296;2023-03-23T07:36:49;22.30;;;15.23;;
4692;SDS011;11710;48.024;16.296;2023-03-23T07:39:16;23.87;;;15.77;;
4692;SDS011;11710;48.024;16.296;2023-03-23T07:41:44;23.33;;;13.00;;
4692;SDS011;11710;48.024;16.296;2023-03-23T07:44:14;17.30;;;13.65;;
4692;SDS011;11710;48.024;16.296;2023-03-23T07:46:41;19.42;;;12.77;;
4692;SDS011;11710;48.024;16.296;2023-03-23T07:49:09;14.77;;;13.02;;
4692;SDS011;11710;48.024;16.296;2023-03-23T07:51:36;14.50;;;12.55;;
4692;SDS011;11710;48.024;16.296;2023-03-23T07:54:06;16.15;;;13.38;;
4692;SDS011;11710;48.024;16.296;2023-03-23T07:56:33;16.80;;;13.23;;
4692;SDS011;11710;48.024;16.296;2023-03-23T07:59:02;21.10;;;12.70;;
4692;SDS011;11710;48.024;16.296;2023-03-23T08:01:31;14.02;;;12.43;;
4692;SDS011;11710;48.024;16.296;2023-03-23T08:03:58;18.87;;;13.70;;
4692;SDS011;11710;48.024;16.296;2023-03-23T08:06:26;19.45;;;13.02;;
4692;SDS011;11710;48.024;16.296;2023-03-23T08:08:53;19.00;;;13.73;;
4692;SDS011;11710;48.024;16.296;2023-03-23T08:11:23;19.03;;;13.37;;
4692;SDS011;11710;48.024;16.296;2023-03-23T08:13:50;16.63;;;13.87;;
4692;SDS011;11710;48.024;16.296;2023-03-23T08:16:18;18.50;;;14.70;;
4692;SDS011;11710;48.024;16.296;2023-03-23T08:18:46;19.17;;;14.33;;
4692;SDS011;11710;48.024;16.296;2023-03-23T08:21:13;14.57;;;13.00;;
4692;SDS011;11710;48.024;16.296;2023-03-23T08:23:41;21.37;;;14.80;;
4692;SDS011;11710;48.024;16.296;2023-03-23T08:26:09;17.93;;;14.60;;
4692;SDS011;11710;48.024;16.296;2023-03-23T08:28:39;17.77;;;14.00;;
4692;SDS011;11710;48.024;16.296;2023-03-23T08:31:07;15.43;;;13.33;;
4692;SDS011;11710;48.024;16.296;2023-03-23T08:33:35;15.63;;;13.57;;
4692;SDS011;11710;48.024;16.296;2023-03-23T08:36:03;17.00;;;14.03;;
4692;SDS011;11710;48.024;16.296;2023-03-23T08:38:33;19.97;;;14.40;;
4692;SDS011;11710;48.024;16.296;2023-03-23T08:41:00;16.43;;;14.40;;
4692;SDS011;11710;48.024;16.296;2023-03-23T08:43:29;16.27;;;13.30;;
4692;SDS011;11710;48.024;16.296;2023-03-23T08:45:59;15.63;;;14.00;;
4692;SDS011;11710;48.024;16.296;2023-03-23T08:48:32;20.43;;;14.57;;
4692;SDS011;11710;48.024;16.296;2023-03-23T08:51:00;16.53;;;14.50;;
4692;SDS011;11710;48.024;16.296;2023-03-23T08:53:27;17.63;;;14.37;;
4692;SDS011;11710;48.024;16.296;2023-03-23T08:55:56;17.97;;;14.30;;
4692;SDS011;11710;48.024;16.296;2023-03-23T08:58:29;15.90;;;14.30;;
4692;SDS011;11710;48.024;16.296;2023-03-23T09:00:56;17.80;;;14.43;;
4692;SDS011;11710;48.024;16.296;2023-03-23T09:03:26;15.37;;;13.37;;
4692;SDS011;11710;48.024;16.296;2023-03-23T09:05:53;32.57;;;14.00;;
4692;SDS011;11710;48.024;16.296;2023-03-23T09:08:25;15.67;;;13.93;;
4692;SDS011;11710;48.024;16.296;2023-03-23T09:10:54;16.47;;;14.60;;
4692;SDS011;11710;48.024;16.296;2023-03-23T09:13:21;16.30;;;14.50;;
4692;SDS011;11710;48.024;16.296;2023-03-23T09:15:49;19.93;;;15.10;;
4692;SDS011;11710;48.024;16.296;2023-03-23T09:18:18;16.00;;;13.73;;
4692;SDS011;11710;48.024;16.296;2023-03-23T09:20:46;15.20;;;13.70;;
4692;SDS011;11710;48.024;16.296;2023-03-23T09:23:16;15.90;;;14.20;;
4692;SDS011;11710;48.024;16.296;2023-03-23T09:25:43;18.53;;;13.90;;
4692;SDS011;11710;48.024;16.296;2023-03-23T09:28:11;15.77;;;14.17;;
4692;SDS011;11710;48.024;16.296;2023-03-23T09:30:39;15.30;;;13.70;;
4692;SDS011;11710;48.024;16.296;2023-03-23T09:33:08;17.20;;;13.60;;
4692;SDS011;11710;48.024;16.296;2023-03-23T09:35:36;14.03;;;11.70;;
4692;SDS011;11710;48.024;16.296;2023-03-23T09:38:07;13.40;;;12.00;;
4692;SDS011;11710;48.024;16.296;2023-03-23T09:40:38;12.90;;;11.60;;
4692;SDS011;11710;48.024;16.296;2023-03-23T09:46:12;14.00;;;12.60;;
4692;SDS011;11710;48.024;16.296;2023-03-23T09:48:50;17.03;;;13.37;;
4692;SDS011;11710;48.024;16.296;2023-03-23T09:51:24;14.97;;;13.40;;
4692;SDS011;11710;48.024;16.296;2023-03-23T09:54:03;15.40;;;12.47;;
4692;SDS011;11710;48.024;16.296;2023-03-23T09:56:35;14.77;;;13.20;;
4692;SDS011;11710;48.024;16.296;2023-03-23T09:59:09;14.43;;;12.90;;
4692;SDS011;11710;48.024;16.296;2023-03-23T10:01:43;14.30;;;12.77;;
4692;SDS011;11710;48.024;16.296;2023-03-23T10:04:15;14.00;;;12.63;;
4692;SDS011;11710;48.024;16.296;2023-03-23T10:06:58;15.70;;;12.30;;
4692;SDS011;11710;48.024;16.296;2023-03-23T10:09:31;13.03;;;11.73;;
4692;SDS011;11710;48.024;16.296;2023-03-23T10:12:00;13.17;;;11.90;;
4692;SDS011;11710;48.024;16.296;2023-03-23T10:14:39;17.93;;;11.77;;
4692;SDS011;11710;48.024;16.296;2023-03-23T10:17:11;15.00;;;11.70;;
4692;SDS011;11710;48.024;16.296;2023-03-23T10:19:44;15.93;;;11.90;;
4692;SDS011;11710;48.024;16.296;2023-03-23T10:22:20;13.50;;;12.20;;
4692;SDS011;11710;48.024;16.296;2023-03-23T10:24:52;13.30;;;12.10;;
4692;SDS011;11710;48.024;16.296;2023-03-23T10:27:29;13.50;;;12.10;;
4692;SDS011;11710;48.024;16.296;2023-03-23T10:30:01;14.93;;;12.67;;
4692;SDS011;11710;48.024;16.296;2023-03-23T10:32:41;13.80;;;11.90;;
4692;SDS011;11710;48.024;16.296;2023-03-23T10:35:12;22.93;;;11.47;;
4692;SDS011;11710;48.024;16.296;2023-03-23T10:37:44;17.37;;;11.57;;
4692;SDS011;11710;48.024;16.296;2023-03-23T10:40:16;17.53;;;10.37;;
4692;SDS011;11710;48.024;16.296;2023-03-23T10:42:46;12.97;;;10.70;;
4692;SDS011;11710;48.024;16.296;2023-03-23T10:45:16;10.60;;;9.50;;
4692;SDS011;11710;48.024;16.296;2023-03-23T10:47:46;10.37;;;9.30;;
4692;SDS011;11710;48.024;16.296;2023-03-23T10:50:21;10.40;;;9.40;;
4692;SDS011;11710;48.024;16.296;2023-03-23T10:52:53;10.50;;;9.40;;
4692;SDS011;11710;48.024;16.296;2023-03-23T10:55:24;15.20;;;9.33;;
4692;SDS011;11710;48.024;16.296;2023-03-23T10:58:03;10.70;;;8.73;;
4692;SDS011;11710;48.024;16.296;2023-03-23T11:00:31;13.00;;;9.23;;
4692;SDS011;11710;48.024;16.296;2023-03-23T11:03:00;14.67;;;8.70;;
4692;SDS011;11710;48.024;16.296;2023-03-23T11:05:35;12.30;;;8.37;;
4692;SDS011;11710;48.024;16.296;2023-03-23T11:08:12;11.97;;;9.40;;
4692;SDS011;11710;48.024;16.296;2023-03-23T11:10:42;11.50;;;8.70;;
4692;SDS011;11710;48.024;16.296;2023-03-23T11:13:16;15.47;;;8.50;;
4692;SDS011;11710;48.024;16.296;2023-03-23T11:15:45;13.17;;;8.70;;
4692;SDS011;11710;48.024;16.296;2023-03-23T11:18:18;11.13;;;9.30;;
4692;SDS011;11710;48.024;16.296;2023-03-23T11:20:48;12.03;;;9.40;;
4692;SDS011;11710;48.024;16.296;2023-03-23T11:23:22;14.10;;;10.47;;
4692;SDS011;11710;48.024;16.296;2023-03-23T11:25:54;11.50;;;10.30;;
4692;SDS011;11710;48.024;16.296;2023-03-23T11:28:25;13.73;;;9.37;;
4692;SDS011;11710;48.024;16.296;2023-03-23T11:30:59;14.40;;;10.43;;
4692;SDS011;11710;48.024;16.296;2023-03-23T11:33:29;12.33;;;11.03;;
4692;SDS011;11710;48.024;16.296;2023-03-23T11:36:02;15.00;;;10.70;;
4692;SDS011;11710;48.024;16.296;2023-03-23T11:38:32;13.40;;;10.50;;
4692;SDS011;11710;48.024;16.296;2023-03-23T11:41:00;13.43;;;10.40;;
4692;SDS011;11710;48.024;16.296;2023-03-23T11:43:28;11.80;;;10.03;;
4692;SDS011;11710;48.024;16.296;2023-03-23T11:46:01;14.17;;;9.03;;
4692;SDS011;11710;48.024;16.296;2023-03-23T11:48:38;11.90;;;9.70;;
4692;SDS011;11710;48.024;16.296;2023-03-23T11:51:11;10.63;;;9.27;;
4692;SDS011;11710;48.024;16.296;2023-03-23T11:53:45;13.07;;;9.93;;
4692;SDS011;11710;48.024;16.296;2023-03-23T11:56:19;12.40;;;10.20;;
4692;SDS011;11710;48.024;16.296;2023-03-23T11:58:52;12.43;;;10.00;;
4692;SDS011;11710;48.024;16.296;2023-03-23T12:01:23;12.40;;;9.93;;
4692;SDS011;11710;48.024;16.296;2023-03-23T12:04:14;10.60;;;8.70;;
4692;SDS011;11710;48.024;16.296;2023-03-23T12:07:09;11.23;;;8.50;;
4692;SDS011;11710;48.024;16.296;2023-03-23T12:09:50;11.73;;;8.20;;
4692;SDS011;11710;48.024;16.296;2023-03-23T12:12:28;9.50;;;8.17;;
4692;SDS011;11710;48.024;16.296;2023-03-23T12:15:04;10.53;;;7.70;;
4692;SDS011;11710;48.024;16.296;2023-03-23T12:17:40;9.20;;;7.87;;
4692;SDS011;11710;48.024;16.296;2023-03-23T12:20:20;9.00;;;6.80;;
4692;SDS011;11710;48.024;16.296;2023-03-23T12:22:58;14.47;;;7.50;;
4692;SDS011;11710;48.024;16.296;2023-03-23T12:25:51;11.63;;;8.43;;
4692;SDS011;11710;48.024;16.296;2023-03-23T12:28:40;8.90;;;8.00;;
4692;SDS011;11710;48.024;16.296;2023-03-23T12:31:23;9.00;;;7.17;;
4692;SDS011;11710;48.024;16.296;2023-03-23T12:34:01;11.83;;;7.93;;
4692;SDS011;11710;48.024;16.296;2023-03-23T12:36:38;16.57;;;7.60;;
4692;SDS011;11710;48.024;16.296;2023-03-23T12:42:29;11.37;;;7.10;;
4692;SDS011;11710;48.024;16.296;2023-03-23T12:45:07;10.13;;;8.00;;
4692;SDS011;11710;48.024;16.296;2023-03-23T12:47:48;8.23;;;6.27;;
4692;SDS011;11710;48.024;16.296;2023-03-23T12:50:23;10.07;;;6.30;;
4692;SDS011;11710;48.024;16.296;2023-03-23T12:52:56;10.97;;;6.90;;
4692;SDS011;11710;48.024;16.296;2023-03-23T12:55:31;9.57;;;7.30;;
4692;SDS011;11710;48.024;16.296;2023-03-23T12:58:04;12.97;;;6.90;;
4692;SDS011;11710;48.024;16.296;2023-03-23T13:00:37;10.07;;;6.53;;
4692;SDS011;11710;48.024;16.296;2023-03-23T13:03:18;8.23;;;6.57;;
4692;SDS011;11710;48.024;16.296;2023-03-23T13:05:53;9.13;;;7.10;;
4692;SDS011;11710;48.024;16.296;2023-03-23T13:08:30;8.60;;;7.43;;
4692;SDS011;11710;48.024;16.296;2023-03-23T13:11:03;12.00;;;6.73;;
4692;SDS011;11710;48.024;16.296;2023-03-23T13:13:43;7.90;;;6.20;;
4692;SDS011;11710;48.024;16.296;2023-03-23T13:16:18;10.03;;;7.00;;
4692;SDS011;11710;48.024;16.296;2023-03-23T13:19:04;7.87;;;6.20;;
4692;SDS011;11710;48.024;16.296;2023-03-23T13:21:40;6.13;;;5.63;;
4692;SDS011;11710;48.024;16.296;2023-03-23T13:24:12;10.93;;;5.97;;
4692;SDS011;11710;48.024;16.296;2023-03-23T13:26:42;7.90;;;5.63;;
4692;SDS011;11710;48.024;16.296;2023-03-23T13:29:15;6.53;;;5.90;;
4692;SDS011;11710;48.024;16.296;2023-03-23T13:31:45;10.53;;;6.50;;
4692;SDS011;11710;48.024;16.296;2023-03-23T13:34:16;8.17;;;5.70;;
4692;SDS011;11710;48.024;16.296;2023-03-23T13:36:51;6.53;;;5.70;;
4692;SDS011;11710;48.024;16.296;2023-03-23T13:39:21;6.00;;;5.40;;
4692;SDS011;11710;48.024;16.296;2023-03-23T13:41:59;6.50;;;5.70;;
4692;SDS011;11710;48.024;16.296;2023-03-23T13:44:40;4.90;;;4.33;;
4692;SDS011;11710;48.024;16.296;2023-03-23T13:47:21;6.27;;;5.37;;
4692;SDS011;11710;48.024;16.296;2023-03-23T13:49:54;5.53;;;5.03;;
4692;SDS011;11710;48.024;16.296;2023-03-23T13:52:24;5.90;;;5.30;;
4692;SDS011;11710;48.024;16.296;2023-03-23T13:58:11;8.50;;;5.60;;
4692;SDS011;11710;48.024;16.296;2023-03-23T14:01:00;5.07;;;4.57;;
4692;SDS011;11710;48.024;16.296;2023-03-23T14:03:36;7.83;;;5.17;;
4692;SDS011;11710;48.024;16.296;2023-03-23T14:06:07;5.80;;;5.20;;
4692;SDS011;11710;48.024;16.296;2023-03-23T14:08:42;6.10;;;5.50;;
4692;SDS011;11710;48.024;16.296;2023-03-23T14:11:12;7.33;;;5.40;;
4692;SDS011;11710;48.024;16.296;2023-03-23T14:13:44;6.70;;;5.03;;
4692;SDS011;11710;48.024;16.296;2023-03-23T14:16:19;6.10;;;5.50;;
4692;SDS011;11710;48.024;16.296;2023-03-23T14:18:49;6.60;;;5.20;;
4692;SDS011;11710;48.024;16.296;2023-03-23T14:21:32;11.87;;;6.43;;
4692;SDS011;11710;48.024;16.296;2023-03-23T14:24:01;7.70;;;6.13;;
4692;SDS011;11710;48.024;16.296;2023-03-23T14:26:32;8.87;;;6.20;;
4692;SDS011;11710;48.024;16.296;2023-03-23T14:29:02;8.57;;;6.80;;
4692;SDS011;11710;48.024;16.296;2023-03-23T14:31:32;29.70;;;8.20;;
4692;SDS011;11710;48.024;16.296;2023-03-23T14:34:03;9.53;;;6.10;;
4692;SDS011;11710;48.024;16.296;2023-03-23T14:36:36;8.80;;;6.70;;
4692;SDS011;11710;48.024;16.296;2023-03-23T14:39:04;72.90;;;11.30;;
4692;SDS011;11710;48.024;16.296;2023-03-23T14:41:36;140.33;;;16.57;;
4692;SDS011;11710;48.024;16.296;2023-03-23T14:44:05;6.30;;;5.17;;
4692;SDS011;11710;48.024;16.296;2023-03-23T14:46:37;6.00;;;5.40;;
4692;SDS011;11710;48.024;16.296;2023-03-23T14:49:04;6.57;;;5.30;;
4692;SDS011;11710;48.024;16.296;2023-03-23T14:51:33;7.63;;;5.57;;
4692;SDS011;11710;48.024;16.296;2023-03-23T14:54:00;13.03;;;6.00;;
4692;SDS011;11710;48.024;16.296;2023-03-23T14:56:32;5.97;;;5.37;;
4692;SDS011;11710;48.024;16.296;2023-03-23T14:59:03;5.80;;;5.30;;
4692;SDS011;11710;48.024;16.296;2023-03-23T15:01:33;5.50;;;5.00;;
4692;SDS011;11710;48.024;16.296;2023-03-23T15:04:07;5.60;;;5.17;;
4692;SDS011;11710;48.024;16.296;2023-03-23T15:06:39;5.57;;;5.00;;
4692;SDS011;11710;48.024;16.296;2023-03-23T15:09:10;9.17;;;5.30;;
4692;SDS011;11710;48.024;16.296;2023-03-23T15:11:42;5.67;;;5.00;;
4692;SDS011;11710;48.024;16.296;2023-03-23T15:14:13;5.87;;;5.37;;
4692;SDS011;11710;48.024;16.296;2023-03-23T15:16:46;6.97;;;4.60;;
4692;SDS011;11710;48.024;16.296;2023-03-23T15:19:16;5.50;;;4.97;;
4692;SDS011;11710;48.024;16.296;2023-03-23T15:21:47;5.13;;;4.57;;
4692;SDS011;11710;48.024;16.296;2023-03-23T15:24:20;6.13;;;4.67;;
4692;SDS011;11710;48.024;16.296;2023-03-23T15:26:52;7.00;;;5.00;;
4692;SDS011;11710;48.024;16.296;2023-03-23T15:29:21;8.70;;;5.60;;
4692;SDS011;11710;48.024;16.296;2023-03-23T15:31:51;5.83;;;5.10;;
4692;SDS011;11710;48.024;16.296;2023-03-23T15:34:24;7.83;;;5.33;;
4692;SDS011;11710;48.024;16.296;2023-03-23T15:36:57;7.97;;;4.93;;
4692;SDS011;11710;48.024;16.296;2023-03-23T15:39:27;8.80;;;6.30;;
4692;SDS011;11710;48.024;16.296;2023-03-23T15:41:55;6.27;;;5.67;;
4692;SDS011;11710;48.024;16.296;2023-03-23T15:44:28;11.10;;;6.10;;
4692;SDS011;11710;48.024;16.296;2023-03-23T15:47:12;9.33;;;5.90;;
4692;SDS011;11710;48.024;16.296;2023-03-23T15:49:42;6.67;;;5.87;;
4692;SDS011;11710;48.024;16.296;2023-03-23T15:52:12;10.70;;;6.63;;
4692;SDS011;11710;48.024;16.296;2023-03-23T15:54:47;9.63;;;7.57;;
4692;SDS011;11710;48.024;16.296;2023-03-23T15:57:15;9.97;;;6.90;;
4692;SDS011;11710;48.024;16.296;2023-03-23T15:59:42;9.33;;;7.47;;
4692;SDS011;11710;48.024;16.296;2023-03-23T16:02:15;8.47;;;7.57;;
4692;SDS011;11710;48.024;16.296;2023-03-23T16:04:46;11.20;;;8.23;;
4692;SDS011;11710;48.024;16.296;2023-03-23T16:07:14;24.33;;;9.97;;
4692;SDS011;11710;48.024;16.296;2023-03-23T16:09:42;9.80;;;8.80;;
4692;SDS011;11710;48.024;16.296;2023-03-23T16:12:10;12.53;;;8.70;;
4692;SDS011;11710;48.024;16.296;2023-03-23T16:14:38;14.60;;;8.20;;
4692;SDS011;11710;48.024;16.296;2023-03-23T16:17:08;10.07;;;8.10;;
4692;SDS011;11710;48.024;16.296;2023-03-23T16:19:41;19.07;;;8.43;;
4692;SDS011;11710;48.024;16.296;2023-03-23T16:22:08;17.30;;;8.57;;
4692;SDS011;11710;48.024;16.296;2023-03-23T16:24:36;11.97;;;7.80;;
4692;SDS011;11710;48.024;16.296;2023-03-23T16:27:03;16.53;;;8.13;;
4692;SDS011;11710;48.024;16.296;2023-03-23T16:29:31;9.47;;;8.47;;
4692;SDS011;11710;48.024;16.296;2023-03-23T16:31:58;10.97;;;8.10;;
4692;SDS011;11710;48.024;16.296;2023-03-23T16:34:25;15.33;;;9.10;;
4692;SDS011;11710;48.024;16.296;2023-03-23T16:36:55;12.80;;;10.37;;
4692;SDS011;11710;48.024;16.296;2023-03-23T16:39:22;19.10;;;11.67;;
4692;SDS011;11710;48.024;16.296;2023-03-23T16:41:50;15.30;;;11.67;;
4692;SDS011;11710;48.024;16.296;2023-03-23T16:44:17;16.53;;;11.03;;
4692;SDS011;11710;48.024;16.296;2023-03-23T16:46:44;12.13;;;10.77;;
4692;SDS011;11710;48.024;16.296;2023-03-23T16:49:11;10.67;;;9.50;;
4692;SDS011;11710;48.024;16.296;2023-03-23T16:51:39;9.57;;;8.40;;
4692;SDS011;11710;48.024;16.296;2023-03-23T16:54:07;15.73;;;11.33;;
4692;SDS011;11710;48.024;16.296;2023-03-23T16:56:34;15.80;;;11.00;;
4692;SDS011;11710;48.024;16.296;2023-03-23T16:59:02;13.00;;;10.37;;
4692;SDS011;11710;48.024;16.296;2023-03-23T17:01:29;12.60;;;10.10;;
4692;SDS011;11710;48.024;16.296;2023-03-23T17:03:56;15.27;;;10.87;;
4692;SDS011;11710;48.024;16.296;2023-03-23T17:06:23;16.30;;;10.70;;
4692;SDS011;11710;48.024;16.296;2023-03-23T17:08:51;17.93;;;12.70;;
4692;SDS011;11710;48.024;16.296;2023-03-23T17:11:20;12.83;;;11.30;;
4692;SDS011;11710;48.024;16.296;2023-03-23T17:13:47;14.13;;;11.97;;
4692;SDS011;11710;48.024;16.296;2023-03-23T17:16:14;15.47;;;11.60;;
4692;SDS011;11710;48.024;16.296;2023-03-23T17:18:41;15.60;;;12.90;;
4692;SDS011;11710;48.024;16.296;2023-03-23T17:21:08;16.80;;;13.50;;
4692;SDS011;11710;48.024;16.296;2023-03-23T17:23:36;16.37;;;14.00;;
4692;SDS011;11710;48.024;16.296;2023-03-23T17:26:03;20.37;;;13.30;;
4692;SDS011;11710;48.024;16.296;2023-03-23T17:28:32;15.40;;;12.80;;
4692;SDS011;11710;48.024;16.296;2023-03-23T17:31:00;17.10;;;12.73;;
4692;SDS011;11710;48.024;16.296;2023-03-23T17:33:27;15.67;;;11.87;;
4692;SDS011;11710;48.024;16.296;2023-03-23T17:35:54;14.43;;;11.57;;
4692;SDS011;11710;48.024;16.296;2023-03-23T17:38:23;24.00;;;13.87;;
4692;SDS011;11710;48.024;16.296;2023-03-23T17:40:56;22.27;;;15.60;;
4692;SDS011;11710;48.024;16.296;2023-03-23T17:43:29;35.43;;;14.60;;
4692;SDS011;11710;48.024;16.296;2023-03-23T17:45:59;19.83;;;13.47;;
4692;SDS011;11710;48.024;16.296;2023-03-23T17:48:26;25.67;;;14.13;;
4692;SDS011;11710;48.024;16.296;2023-03-23T17:50:54;23.43;;;14.70;;
4692;SDS011;11710;48.024;16.296;2023-03-23T17:53:23;18.77;;;15.73;;
4692;SDS011;11710;48.024;16.296;2023-03-23T17:55:50;21.73;;;15.90;;
4692;SDS011;11710;48.024;16.296;2023-03-23T17:58:18;30.07;;;17.23;;
4692;SDS011;11710;48.024;16.296;2023-03-23T18:00:45;38.50;;;22.90;;
4692;SDS011;11710;48.024;16.296;2023-03-23T18:03:14;36.40;;;24.60;;
4692;SDS011;11710;48.024;16.296;2023-03-23T18:05:41;37.20;;;24.80;;
4692;SDS011;11710;48.024;16.296;2023-03-23T18:08:08;38.27;;;22.03;;
4692;SDS011;11710;48.024;16.296;2023-03-23T18:10:37;42.13;;;26.90;;
4692;SDS011;11710;48.024;16.296;2023-03-23T18:13:06;51.80;;;28.83;;
4692;SDS011;11710;48.024;16.296;2023-03-23T18:15:34;58.47;;;33.67;;
4692;SDS011;11710;48.024;16.296;2023-03-23T18:18:02;52.33;;;30.50;;
4692;SDS011;11710;48.024;16.296;2023-03-23T18:20:31;43.50;;;27.10;;
4692;SDS011;11710;48.024;16.296;2023-03-23T18:22:59;37.23;;;25.40;;
4692;SDS011;11710;48.024;16.296;2023-03-23T18:25:27;35.17;;;23.13;;
4692;SDS011;11710;48.024;16.296;2023-03-23T18:27:55;29.93;;;21.00;;
4692;SDS011;11710;48.024;16.296;2023-03-23T18:30:22;30.30;;;20.50;;
4692;SDS011;11710;48.024;16.296;2023-03-23T18:32:51;22.53;;;17.87;;
4692;SDS011;11710;48.024;16.296;2023-03-23T18:35:18;22.30;;;18.30;;
4692;SDS011;11710;48.024;16.296;2023-03-23T18:37:47;28.77;;;19.30;;
4692;SDS011;11710;48.024;16.296;2023-03-23T18:40:14;25.77;;;19.03;;
4692;SDS011;11710;48.024;16.296;2023-03-23T18:42:44;22.63;;;17.80;;
4692;SDS011;11710;48.024;16.296;2023-03-23T18:45:13;24.87;;;19.80;;
4692;SDS011;11710;48.024;16.296;2023-03-23T18:47:40;26.57;;;21.60;;
4692;SDS011;11710;48.024;16.296;2023-03-23T18:50:08;31.03;;;23.13;;
4692;SDS011;11710;48.024;16.296;2023-03-23T18:52:36;32.30;;;24.67;;
4692;SDS011;11710;48.024;16.296;2023-03-23T18:55:06;31.83;;;24.33;;
4692;SDS011;11710;48.024;16.296;2023-03-23T18:57:34;31.10;;;24.70;;
4692;SDS011;11710;48.024;16.296;2023-03-23T19:00:06;30.73;;;24.27;;
4692;SDS011;11710;48.024;16.296;2023-03-23T19:02:39;26.07;;;21.53;;
4692;SDS011;11710;48.024;16.296;2023-03-23T19:05:11;22.97;;;20.47;;
4692;SDS011;11710;48.024;16.296;2023-03-23T19:07:41;26.33;;;20.07;;
4692;SDS011;11710;48.024;16.296;2023-03-23T19:10:12;32.40;;;20.10;;
4692;SDS011;11710;48.024;16.296;2023-03-23T19:12:47;22.90;;;20.27;;
4692;SDS011;11710;48.024;16.296;2023-03-23T19:15:18;26.27;;;21.20;;
4692;SDS011;11710;48.024;16.296;2023-03-23T19:17:48;30.83;;;22.20;;
4692;SDS011;11710;48.024;16.296;2023-03-23T19:20:20;32.03;;;22.97;;
4692;SDS011;11710;48.024;16.296;2023-03-23T19:22:51;31.03;;;24.03;;
4692;SDS011;11710;48.024;16.296;2023-03-23T19:25:20;34.80;;;27.07;;
4692;SDS011;11710;48.024;16.296;2023-03-23T19:27:47;30.63;;;25.30;;
4692;SDS011;11710;48.024;16.296;2023-03-23T19:30:14;41.53;;;25.37;;
4692;SDS011;11710;48.024;16.296;2023-03-23T19:32:42;35.70;;;28.17;;
4692;SDS011;11710;48.024;16.296;2023-03-23T19:35:10;40.93;;;29.00;;
4692;SDS011;11710;48.024;16.296;2023-03-23T19:37:37;35.00;;;25.23;;
4692;SDS011;11710;48.024;16.296;2023-03-23T19:40:05;27.57;;;22.90;;
4692;SDS011;11710;48.024;16.296;2023-03-23T19:42:35;29.33;;;23.63;;
4692;SDS011;11710;48.024;16.296;2023-03-23T19:45:02;29.97;;;23.13;;
4692;SDS011;11710;48.024;16.296;2023-03-23T19:47:30;31.60;;;23.23;;
4692;SDS011;11710;48.024;16.296;2023-03-23T19:49:58;32.40;;;23.60;;
4692;SDS011;11710;48.024;16.296;2023-03-23T19:52:25;30.80;;;24.80;;
4692;SDS011;11710;48.024;16.296;2023-03-23T19:54:52;35.73;;;23.30;;
4692;SDS011;11710;48.024;16.296;2023-03-23T19:57:20;28.17;;;22.10;;
4692;SDS011;11710;48.024;16.296;2023-03-23T19:59:49;32.33;;;24.27;;
4692;SDS011;11710;48.024;16.296;2023-03-23T20:02:16;28.10;;;22.07;;
4692;SDS011;11710;48.024;16.296;2023-03-23T20:04:43;30.00;;;22.13;;
4692;SDS011;11710;48.024;16.296;2023-03-23T20:07:11;27.80;;;21.17;;
